Time;durP1;ratioP1;P1;durP2;ratioP2;P2;SDS_P1;SDS_P2;PMS_P1;PMS_P2;Temp;Humidity;BMP_temperature;BMP_pressure;BME280_temperature;BME280_humidity;BME280_pressure;Samples;Min_cycle;Max_cycle;Signal;HPM_P1;HPM_P2
2022/01/31 00:00:46;;;;;;;9.80;6.20;;;;;;;1.29;57.19;99265.01;117242;1182;21846;-51
2022/01/31 00:03:15;;;;;;;10.70;6.70;;;;;;;1.34;57.17;99266.92;117120;1185;22008;-67
2022/01/31 00:05:43;;;;;;;8.90;5.80;;;;;;;1.36;57.23;99269.36;117239;1181;21864;-67
2022/01/31 00:08:24;;;;;;;11.00;6.30;;;;;;;1.39;57.28;99268.69;116986;1186;24159;-51
2022/01/31 00:10:53;;;;;;;7.10;4.50;;;;;;;1.48;57.23;99263.58;117408;1185;23452;-53
2022/01/31 00:13:36;;;;;;;8.40;4.60;;;;;;;1.65;57.61;99263.67;117257;1185;22946;-67
2022/01/31 00:16:26;;;;;;;7.10;4.00;;;;;;;1.91;57.72;99257.06;117016;1187;21947;-68
2022/01/31 00:18:54;;;;;;;6.20;3.80;;;;;;;2.08;57.58;99258.71;117027;1183;21867;-52
2022/01/31 00:21:23;;;;;;;6.90;3.80;;;;;;;2.21;57.52;99259.61;117255;1184;23559;-66
2022/01/31 00:23:52;;;;;;;7.10;3.90;;;;;;;2.31;57.63;99255.15;117249;1186;23452;-52
2022/01/31 00:26:20;;;;;;;7.00;4.10;;;;;;;2.37;57.53;99255.35;117242;1186;21882;-52
2022/01/31 00:28:49;;;;;;;6.00;3.50;;;;;;;2.43;57.54;99254.67;117231;1184;23459;-66
2022/01/31 00:31:20;;;;;;;5.10;3.00;;;;;;;2.49;57.59;99254.16;117397;1181;23551;-52
2022/01/31 00:33:49;;;;;;;5.10;3.00;;;;;;;2.58;57.58;99254.71;117123;1185;24242;-52
2022/01/31 00:36:17;;;;;;;4.30;2.90;;;;;;;2.68;57.62;99252.30;117068;1178;23472;-52
2022/01/31 00:38:46;;;;;;;5.30;2.70;;;;;;;2.80;57.68;99252.49;117059;1182;22629;-66
2022/01/31 00:41:14;;;;;;;6.00;3.70;;;;;;;2.89;57.68;99247.81;117206;1186;21915;-52
2022/01/31 00:43:48;;;;;;;3.80;2.70;;;;;;;2.96;57.63;99246.09;117001;1182;23956;-66
2022/01/31 00:46:23;;;;;;;5.00;3.00;;;;;;;3.03;57.66;99242.80;117090;1185;21853;-67
2022/01/31 00:48:53;;;;;;;4.10;2.40;;;;;;;3.10;57.65;99242.27;117068;1181;23482;-52
2022/01/31 00:51:21;;;;;;;6.30;2.90;;;;;;;3.15;57.52;99241.75;117246;1185;22937;-52
2022/01/31 00:53:50;;;;;;;3.90;2.10;;;;;;;3.18;57.69;99242.11;117212;1184;21850;-53
2022/01/31 00:56:18;;;;;;;4.60;2.40;;;;;;;3.22;57.46;99250.42;117004;1186;21857;-67
2022/01/31 00:58:46;;;;;;;3.00;2.00;;;;;;;3.25;57.62;99254.23;117243;1180;23464;-67
2022/01/31 01:01:14;;;;;;;3.50;1.90;;;;;;;3.30;57.72;99253.37;117264;1186;21961;-68
2022/01/31 01:03:43;;;;;;;3.70;2.10;;;;;;;3.37;57.65;99252.32;117306;1185;21866;-67
2022/01/31 01:06:11;;;;;;;3.40;2.00;;;;;;;3.44;57.54;99252.13;117257;1182;23555;-54
2022/01/31 01:08:40;;;;;;;3.80;1.90;;;;;;;3.49;57.63;99252.14;117282;1183;23763;-53
2022/01/31 01:11:08;;;;;;;3.10;1.80;;;;;;;3.52;57.63;99249.70;117394;1182;23445;-54
2022/01/31 01:13:37;;;;;;;3.10;1.80;;;;;;;3.55;57.62;99253.67;117350;1185;24168;-68
2022/01/31 01:16:05;;;;;;;4.00;1.90;;;;;;;3.56;57.62;99252.11;117100;1182;23445;-68
2022/01/31 01:18:34;;;;;;;3.30;1.80;;;;;;;3.56;57.72;99249.69;117334;1185;21858;-68
2022/01/31 01:21:02;;;;;;;3.40;1.60;;;;;;;3.57;57.42;99250.02;117285;1182;24176;-55
2022/01/31 01:23:31;;;;;;;3.10;1.50;;;;;;;3.57;57.74;99247.60;117339;1185;23475;-68
2022/01/31 01:25:59;;;;;;;3.50;1.80;;;;;;;3.59;57.58;99247.08;117319;1185;23438;-54
2022/01/31 01:28:27;;;;;;;4.20;2.10;;;;;;;3.59;57.50;99245.33;117324;1179;23474;-53
2022/01/31 01:30:56;;;;;;;3.60;1.60;;;;;;;3.57;57.32;99247.07;117298;1183;22948;-54
2022/01/31 01:33:25;;;;;;;3.40;1.90;;;;;;;3.55;57.53;99241.70;117385;1182;21868;-54
2022/01/31 01:36:00;;;;;;;2.30;1.50;;;;;;;3.56;57.44;99243.42;117306;1179;22785;-68
2022/01/31 01:38:30;;;;;;;3.60;1.90;;;;;;;3.56;57.61;99243.77;117311;1181;21849;-69
2022/01/31 01:40:59;;;;;;;2.60;1.50;;;;;;;3.57;57.42;99243.79;117309;1186;21851;-54
2022/01/31 01:43:29;;;;;;;3.30;1.50;;;;;;;3.61;57.64;99244.81;117292;1176;21879;-55
2022/01/31 01:45:58;;;;;;;2.70;1.70;;;;;;;3.65;57.78;99243.42;117279;1182;21855;-69
2022/01/31 01:48:27;;;;;;;2.70;1.40;;;;;;;3.70;57.54;99240.29;117389;1184;21848;-54
2022/01/31 01:50:55;;;;;;;3.10;1.60;;;;;;;3.73;57.74;99244.45;117367;1183;21858;-68
2022/01/31 01:53:25;;;;;;;3.30;1.90;;;;;;;3.75;57.70;99243.75;117354;1182;24289;-68
2022/01/31 01:55:53;;;;;;;2.80;1.30;;;;;;;3.77;57.64;99246.34;117118;1185;22924;-54
2022/01/31 01:58:23;;;;;;;3.50;1.20;;;;;;;3.79;57.53;99241.98;117288;1185;21948;-68
2022/01/31 02:01:02;;;;;;;3.00;1.30;;;;;;;3.82;57.71;99239.91;117328;1183;24753;-68
2022/01/31 02:03:32;;;;;;;4.50;1.20;;;;;;;3.85;57.54;99243.36;117335;1180;23471;-55
2022/01/31 02:06:01;;;;;;;3.30;1.40;;;;;;;3.85;57.60;99242.85;117318;1182;23553;-68
2022/01/31 02:08:38;;;;;;;2.40;1.70;;;;;;;3.84;57.60;99238.00;117245;1185;22645;-55
2022/01/31 02:11:08;;;;;;;2.30;1.10;;;;;;;3.83;57.75;99243.19;117352;1183;21882;-55
2022/01/31 02:13:36;;;;;;;3.80;1.90;;;;;;;3.80;57.43;99245.11;117383;1183;21854;-69
2022/01/31 02:16:05;;;;;;;2.30;1.40;;;;;;;3.76;57.62;99245.99;117333;1183;22650;-55
2022/01/31 02:18:36;;;;;;;3.70;1.60;;;;;;;3.72;57.56;99246.18;117316;1183;24211;-54
2022/01/31 02:21:04;;;;;;;;;;;;;;;3.67;57.52;99249.15;117301;1183;22516;-68
2022/01/31 02:23:32;;;;;;;2.20;1.00;;;;;;;3.61;57.49;99249.84;117306;1185;23639;-67
2022/01/31 02:26:05;;;;;;;2.40;1.10;;;;;;;3.53;57.43;99249.70;117080;1185;21820;-68
2022/01/31 02:28:35;;;;;;;2.40;1.10;;;;;;;3.45;57.25;99252.14;117282;1183;23637;-67
2022/01/31 02:31:04;;;;;;;1.90;1.00;;;;;;;3.37;57.49;99251.80;117303;1183;22926;-54
2022/01/31 02:33:32;;;;;;;1.60;0.90;;;;;;;3.31;57.28;99255.95;117320;1179;22218;-68
2022/01/31 02:36:03;;;;;;;3.10;0.90;;;;;;;3.25;57.43;99251.98;117375;1185;23478;-55
2022/01/31 02:38:31;;;;;;;2.20;1.20;;;;;;;3.20;57.40;99251.64;117302;1180;21967;-54
2022/01/31 02:40:59;;;;;;;2.20;1.10;;;;;;;3.16;57.34;99253.20;117282;1186;22802;-53
2022/01/31 02:43:30;;;;;;;3.70;1.30;;;;;;;3.11;57.29;99247.98;117282;1176;23449;-67
2022/01/31 02:45:58;;;;;;;4.10;1.40;;;;;;;3.08;57.27;99248.17;117114;1180;21845;-55
2022/01/31 02:48:30;;;;;;;1.70;1.00;;;;;;;3.08;57.44;99247.83;117293;1186;21856;-68
2022/01/31 02:50:58;;;;;;;2.00;1.20;;;;;;;3.09;57.45;99248.86;117303;1184;23468;-67
2022/01/31 02:53:32;;;;;;;1.60;1.00;;;;;;;3.09;57.50;99252.85;117257;1182;22989;-54
2022/01/31 02:56:01;;;;;;;3.10;1.20;;;;;;;3.11;57.37;99249.56;117298;1185;21848;-56
2022/01/31 02:58:29;;;;;;;2.40;1.30;;;;;;;3.13;57.50;99250.59;117328;1185;21930;-67
2022/01/31 03:00:58;;;;;;;4.30;1.80;;;;;;;3.16;57.53;99251.80;117293;1183;21911;-68
2022/01/31 03:03:28;;;;;;;4.20;2.10;;;;;;;3.20;57.77;99253.02;117342;1182;22918;-54
2022/01/31 03:05:56;;;;;;;3.90;2.00;;;;;;;3.26;57.65;99252.67;117343;1182;23490;-55
2022/01/31 03:08:24;;;;;;;5.10;2.00;;;;;;;3.33;57.58;99252.66;117291;1185;23535;-67
2022/01/31 03:10:53;;;;;;;2.60;1.70;;;;;;;3.38;57.62;99253.35;117141;1185;23470;-54
2022/01/31 03:13:22;;;;;;;3.30;1.30;;;;;;;3.45;57.75;99258.73;117243;1186;23478;-67
2022/01/31 03:15:52;;;;;;;3.40;1.40;;;;;;;3.49;57.64;99253.69;117329;1182;22457;-55
2022/01/31 03:18:20;;;;;;;3.00;1.10;;;;;;;3.51;57.50;99253.35;117301;1186;21855;-54
2022/01/31 03:20:49;;;;;;;3.40;1.50;;;;;;;3.51;57.57;99254.21;117300;1183;23644;-55
2022/01/31 03:23:19;;;;;;;2.70;1.20;;;;;;;3.50;57.56;99258.20;117313;1185;23449;-68
2022/01/31 03:25:47;;;;;;;2.80;0.90;;;;;;;3.49;57.64;99257.68;117345;1186;22967;-67
2022/01/31 03:28:18;;;;;;;2.80;1.20;;;;;;;3.47;57.57;99256.12;117277;1185;24712;-55
2022/01/31 03:30:46;;;;;;;2.40;1.10;;;;;;;3.47;57.66;99254.22;117332;1182;23552;-54
2022/01/31 03:33:14;;;;;;;2.80;1.20;;;;;;;3.47;57.61;99254.56;117140;1186;23712;-68
2022/01/31 03:35:42;;;;;;;3.30;1.30;;;;;;;3.48;57.74;99266.00;117297;1183;23516;-66
2022/01/31 03:38:11;;;;;;;3.50;1.10;;;;;;;3.49;57.78;99265.84;117356;1185;22851;-55
2022/01/31 03:40:39;;;;;;;3.00;1.30;;;;;;;3.51;57.59;99267.58;117317;1182;22608;-53
2022/01/31 03:43:07;;;;;;;3.50;1.10;;;;;;;3.53;57.58;99269.30;117283;1183;23577;-55
2022/01/31 03:45:36;;;;;;;3.80;1.80;;;;;;;3.55;57.40;99270.84;117382;1185;23485;-67
2022/01/31 03:48:06;;;;;;;2.60;1.10;;;;;;;3.56;57.73;99277.08;117284;1185;21975;-68
2022/01/31 03:50:34;;;;;;;2.60;1.10;;;;;;;3.58;57.70;99277.09;117301;1185;22665;-67
2022/01/31 03:53:02;;;;;;;2.50;1.30;;;;;;;3.59;57.71;99279.00;117356;1183;23484;-54
2022/01/31 03:55:31;;;;;;;4.30;1.10;;;;;;;3.61;57.50;99278.82;117276;1182;23451;-54
2022/01/31 03:57:59;;;;;;;1.70;0.70;;;;;;;3.61;57.66;99282.45;117267;1185;24153;-68
2022/01/31 04:00:28;;;;;;;2.30;0.90;;;;;;;3.61;57.73;99283.33;117294;1180;23445;-55
2022/01/31 04:02:56;;;;;;;1.50;0.60;;;;;;;3.59;57.69;99288.18;117287;1185;23162;-54
2022/01/31 04:05:25;;;;;;;2.90;0.90;;;;;;;3.57;57.49;99290.98;117262;1186;23491;-68
2022/01/31 04:07:53;;;;;;;4.30;0.90;;;;;;;3.56;57.58;99298.25;117179;1182;22649;-68
2022/01/31 04:10:27;;;;;;;1.90;0.80;;;;;;;3.54;57.63;99298.25;117122;1186;21854;-68
2022/01/31 04:12:58;;;;;;;1.90;0.80;;;;;;;3.53;57.62;99303.29;117144;1186;22879;-54
2022/01/31 04:15:26;;;;;;;2.30;1.00;;;;;;;3.54;57.64;99306.76;117153;1182;21862;-54
2022/01/31 04:17:55;;;;;;;2.10;0.90;;;;;;;3.56;57.70;99305.70;117114;1183;21859;-54
2022/01/31 04:20:23;;;;;;;2.90;1.10;;;;;;;3.59;57.81;99305.54;117257;1186;23474;-54
2022/01/31 04:23:18;;;;;;;;;;;;;;;3.64;57.65;99303.45;117182;1184;23665;-54
2022/01/31 04:25:51;;;;;;;2.90;0.90;;;;;;;3.70;57.82;99302.92;117157;1179;22847;-54
2022/01/31 04:28:30;;;;;;;3.90;0.80;;;;;;;3.75;57.77;99306.40;117176;1186;22836;-67
2022/01/31 04:33:43;;;;;;;2.40;0.90;;;;;;;3.76;57.72;99315.58;117112;1186;22929;-54
2022/01/31 04:36:14;;;;;;;3.00;1.20;;;;;;;3.75;57.46;99314.72;117181;1186;24242;-55
2022/01/31 04:38:46;;;;;;;2.40;1.20;;;;;;;3.75;57.52;99316.11;117201;1181;23657;-68
2022/01/31 04:41:16;;;;;;;3.30;0.80;;;;;;;3.75;57.46;99317.32;117190;1186;21892;-56
2022/01/31 04:43:47;;;;;;;1.90;0.70;;;;;;;3.73;57.67;99318.89;117110;1185;21856;-55
2022/01/31 04:46:15;;;;;;;2.30;0.90;;;;;;;3.70;57.57;99327.58;117103;1187;21851;-65
2022/01/31 04:48:44;;;;;;;3.00;0.90;;;;;;;3.69;57.55;99328.25;116996;1183;23499;-54
2022/01/31 04:51:13;;;;;;;3.10;0.90;;;;;;;3.68;57.61;99334.51;117128;1184;23461;-68
2022/01/31 04:53:41;;;;;;;1.70;0.90;;;;;;;3.67;57.65;99332.95;117154;1186;22932;-54
2022/01/31 04:56:10;;;;;;;2.80;0.80;;;;;;;3.65;57.62;99334.86;117138;1186;23551;-66
2022/01/31 04:58:40;;;;;;;1.60;0.70;;;;;;;3.64;57.49;99337.28;117146;1186;21868;-68
2022/01/31 05:01:08;;;;;;;3.10;1.00;;;;;;;3.61;57.52;99345.09;117127;1183;23456;-67
2022/01/31 05:03:37;;;;;;;3.50;0.90;;;;;;;3.58;57.52;99343.00;117282;1186;21843;-66
2022/01/31 05:06:08;;;;;;;3.00;0.70;;;;;;;3.53;57.57;99346.30;117305;1184;23589;-68
2022/01/31 05:08:38;;;;;;;3.20;1.00;;;;;;;3.49;57.44;99349.09;117067;1183;21870;-54
2022/01/31 05:11:11;;;;;;;3.80;1.30;;;;;;;3.45;57.45;99353.60;117257;1185;23696;-63
2022/01/31 05:13:39;;;;;;;2.70;0.80;;;;;;;3.41;57.53;99351.16;117215;1186;22925;-71
2022/01/31 05:16:08;;;;;;;3.10;0.90;;;;;;;3.35;57.46;99351.85;117260;1185;23175;-72
2022/01/31 05:18:38;;;;;;;7.40;3.70;;;;;;;3.27;57.42;99352.03;117005;1187;23462;-53
2022/01/31 05:21:08;;;;;;;8.30;3.60;;;;;;;3.19;57.28;99354.95;117142;1178;21852;-59
2022/01/31 05:23:37;;;;;;;17.30;4.60;;;;;;;3.07;57.22;99355.46;117337;1182;21862;-55
2022/01/31 05:26:05;;;;;;;7.20;2.80;;;;;;;2.96;57.24;99359.59;117259;1185;21861;-68
2022/01/31 05:28:34;;;;;;;6.90;1.80;;;;;;;2.85;57.12;99367.20;117271;1182;22943;-68
2022/01/31 05:31:02;;;;;;;5.20;2.10;;;;;;;2.75;57.21;99369.59;117185;1186;23458;-55
2022/01/31 05:33:31;;;;;;;5.80;1.70;;;;;;;2.68;57.20;99369.73;117245;1182;21867;-55
2022/01/31 05:35:59;;;;;;;4.80;1.80;;;;;;;2.63;57.22;99375.61;117067;1186;23591;-69
2022/01/31 05:38:27;;;;;;;3.20;1.50;;;;;;;2.58;57.25;99381.66;117235;1184;23491;-55
2022/01/31 05:40:56;;;;;;;3.20;1.20;;;;;;;2.54;57.26;99384.92;117263;1185;23450;-67
2022/01/31 05:43:24;;;;;;;1.90;1.00;;;;;;;2.49;57.28;99387.15;117134;1180;24566;-67
2022/01/31 05:45:52;;;;;;;3.50;1.20;;;;;;;2.45;57.27;99390.77;117378;1184;23469;-67
2022/01/31 05:48:21;;;;;;;2.60;1.00;;;;;;;2.41;57.31;99394.05;117311;1183;22507;-67
2022/01/31 05:50:49;;;;;;;3.40;1.10;;;;;;;2.37;57.25;99398.53;117160;1186;22890;-67
2022/01/31 05:53:17;;;;;;;4.30;1.30;;;;;;;2.34;57.35;99398.86;117317;1185;22777;-54
2022/01/31 05:55:46;;;;;;;3.60;1.00;;;;;;;2.33;57.26;99401.45;117324;1185;23449;-53
2022/01/31 05:58:15;;;;;;;3.20;1.00;;;;;;;2.32;57.14;99403.52;117328;1181;22869;-54
2022/01/31 06:00:43;;;;;;;3.20;1.00;;;;;;;2.34;57.34;99403.52;117266;1185;21823;-54
2022/01/31 06:03:12;;;;;;;2.40;1.00;;;;;;;2.37;57.41;99405.45;117306;1185;21852;-54
2022/01/31 06:05:40;;;;;;;2.30;1.00;;;;;;;2.40;57.40;99406.69;117333;1185;21845;-54
2022/01/31 06:08:08;;;;;;;2.70;1.00;;;;;;;2.46;57.52;99404.46;117270;1185;21870;-67
2022/01/31 06:10:42;;;;;;;3.00;1.00;;;;;;;2.55;57.62;99414.55;117249;1181;23458;-67
2022/01/31 06:13:10;;;;;;;3.40;1.10;;;;;;;2.67;57.66;99415.64;117341;1185;22619;-53
2022/01/31 06:15:40;;;;;;;2.70;1.50;;;;;;;2.81;57.84;99421.77;117300;1185;23479;-67
2022/01/31 06:18:08;;;;;;;3.50;1.00;;;;;;;2.97;57.86;99425.11;117231;1179;21888;-54
2022/01/31 06:20:37;;;;;;;1.80;0.60;;;;;;;3.13;57.98;99426.55;117245;1183;21869;-55
2022/01/31 06:23:05;;;;;;;2.40;1.10;;;;;;;3.27;58.00;99438.54;117217;1186;23495;-68
2022/01/31 06:25:34;;;;;;;4.70;0.90;;;;;;;3.39;57.93;99436.66;117229;1186;21873;-68
2022/01/31 06:28:05;;;;;;;2.50;0.90;;;;;;;3.52;58.07;99433.91;117269;1182;21856;-55
2022/01/31 06:30:34;;;;;;;2.30;0.80;;;;;;;3.65;58.06;99429.92;117209;1185;24170;-55
2022/01/31 06:33:02;;;;;;;2.80;0.80;;;;;;;3.79;57.99;99428.71;117344;1183;21874;-56
2022/01/31 06:35:31;;;;;;;2.30;0.80;;;;;;;3.96;58.15;99432.70;117306;1177;23476;-66
2022/01/31 06:37:59;;;;;;;4.90;1.10;;;;;;;4.13;58.15;99434.27;117346;1182;24169;-55
2022/01/31 06:40:28;;;;;;;3.30;0.90;;;;;;;4.29;58.15;99432.50;117515;1183;21850;-67
2022/01/31 06:42:56;;;;;;;3.00;0.60;;;;;;;4.44;58.24;99431.93;117433;1176;23451;-56
2022/01/31 06:45:24;;;;;;;2.10;0.90;;;;;;;4.60;58.29;99434.33;117442;1184;23548;-67
2022/01/31 06:47:52;;;;;;;2.80;0.80;;;;;;;4.73;58.20;99432.36;117186;1185;22649;-55
2022/01/31 06:50:21;;;;;;;3.00;0.90;;;;;;;4.85;58.20;99435.45;117008;1187;21912;-67
2022/01/31 06:52:53;;;;;;;4.30;1.00;;;;;;;4.91;58.14;99432.30;117124;1185;22632;-66
2022/01/31 06:55:22;;;;;;;6.10;3.10;;;;;;;4.96;57.89;99434.03;118117;1185;21873;-56
2022/01/31 06:57:52;;;;;;;3.40;0.90;;;;;;;4.96;57.99;99440.09;117271;1185;23622;-55
2022/01/31 07:00:20;;;;;;;4.90;0.90;;;;;;;4.93;58.07;99447.59;117158;1185;23452;-65
2022/01/31 07:02:49;;;;;;;5.60;1.20;;;;;;;4.90;57.69;99452.83;117241;1185;22802;-55
2022/01/31 07:05:18;;;;;;;2.50;0.90;;;;;;;4.87;58.06;99452.82;117421;1181;22960;-55
2022/01/31 07:07:47;;;;;;;4.20;1.10;;;;;;;4.84;57.80;99451.11;117085;1189;21868;-54
2022/01/31 07:10:16;;;;;;;5.90;1.20;;;;;;;4.82;57.90;99454.06;117200;1185;21847;-60
2022/01/31 07:12:51;;;;;;;2.90;0.70;;;;;;;4.82;57.75;99459.29;117259;1186;21900;-54
2022/01/31 07:15:21;;;;;;;3.90;1.30;;;;;;;4.85;57.85;99463.27;117310;1185;23607;-66
2022/01/31 07:17:49;;;;;;;5.80;1.40;;;;;;;4.90;57.95;99455.42;117362;1186;21845;-54
2022/01/31 07:20:35;;;;;;;5.70;1.10;;;;;;;4.95;58.13;99453.15;117356;1186;23473;-54
2022/01/31 07:23:22;;;;;;;5.10;1.20;;;;;;;5.02;58.13;99445.99;117230;1185;23617;-65
2022/01/31 07:25:51;;;;;;;2.20;0.80;;;;;;;5.08;58.00;99451.69;117210;1185;24144;-64
2022/01/31 07:28:19;;;;;;;2.00;0.80;;;;;;;5.14;57.89;99453.75;117134;1186;22937;-65
2022/01/31 07:30:51;;;;;;;2.40;0.90;;;;;;;5.20;57.85;99450.95;117314;1183;24297;-65
2022/01/31 07:33:20;;;;;;;2.70;1.10;;;;;;;5.28;58.15;99450.21;117336;1184;21861;-54
2022/01/31 07:35:49;;;;;;;3.00;0.90;;;;;;;5.33;58.04;99448.25;117321;1178;23648;-65
2022/01/31 07:38:18;;;;;;;3.10;0.80;;;;;;;5.40;58.12;99442.48;117289;1185;21879;-66
2022/01/31 07:40:46;;;;;;;1.80;0.80;;;;;;;5.48;58.15;99442.26;117267;1182;22622;-53
2022/01/31 07:43:15;;;;;;;2.00;0.80;;;;;;;5.56;58.11;99437.84;117298;1183;21963;-66
2022/01/31 07:45:43;;;;;;;2.60;0.90;;;;;;;5.64;58.03;99440.77;117325;1183;24145;-54
2022/01/31 07:48:12;;;;;;;2.30;1.00;;;;;;;5.72;58.46;99444.54;117297;1181;23578;-54
2022/01/31 07:50:40;;;;;;;2.60;1.00;;;;;;;5.80;58.42;99447.77;117288;1185;22943;-66
2022/01/31 07:53:09;;;;;;;2.90;0.90;;;;;;;5.88;58.30;99443.88;117306;1183;23452;-54
2022/01/31 07:55:38;;;;;;;2.60;1.00;;;;;;;5.98;58.28;99443.98;117253;1186;24222;-54
2022/01/31 07:58:06;;;;;;;2.70;0.90;;;;;;;6.07;58.32;99443.59;117267;1177;23587;-67
2022/01/31 08:00:44;;;;;;;2.20;0.80;;;;;;;6.21;58.39;99444.84;117200;1186;24239;-55
2022/01/31 08:03:14;;;;;;;3.70;1.50;;;;;;;6.36;58.21;99447.32;117243;1185;21855;-54
2022/01/31 08:05:42;;;;;;;6.30;1.50;;;;;;;6.51;58.41;99449.23;117272;1185;21852;-66
2022/01/31 08:08:11;;;;;;;3.20;1.00;;;;;;;6.65;58.31;99449.61;117265;1186;22566;-55
2022/01/31 08:10:39;;;;;;;4.60;0.80;;;;;;;6.73;58.31;99454.07;117235;1179;23638;-66
2022/01/31 08:13:08;;;;;;;2.20;1.10;;;;;;;6.74;58.37;99454.06;117252;1186;21855;-66
2022/01/31 08:16:01;;;;;;;2.10;0.80;;;;;;;6.70;57.82;99457.58;117206;1186;23456;-67
2022/01/31 08:18:30;;;;;;;2.50;1.00;;;;;;;6.64;58.16;99459.41;117244;1183;23487;-66
2022/01/31 08:20:59;;;;;;;2.90;0.80;;;;;;;6.59;57.67;99464.69;117344;1184;23577;-55
2022/01/31 08:23:27;;;;;;;3.40;0.90;;;;;;;6.56;57.86;99469.60;117257;1176;22020;-56
2022/01/31 08:25:57;;;;;;;3.50;1.00;;;;;;;6.55;57.95;99466.82;117256;1183;24274;-55
2022/01/31 08:28:34;;;;;;;3.20;0.90;;;;;;;6.59;57.97;99465.73;116885;1187;24169;-66
2022/01/31 08:31:10;;;;;;;2.90;0.80;;;;;;;6.65;58.35;99467.23;117329;1185;23604;-56
2022/01/31 08:33:44;;;;;;;4.30;1.30;;;;;;;6.78;58.40;99462.02;117178;1186;21898;-67
2022/01/31 08:36:12;;;;;;;2.60;1.00;;;;;;;6.90;58.40;99457.00;117106;1185;23550;-56
2022/01/31 08:38:41;;;;;;;5.60;1.50;;;;;;;6.98;58.59;99455.52;117239;1186;21885;-56
2022/01/31 08:41:10;;;;;;;6.90;1.00;;;;;;;7.06;58.22;99446.89;117289;1182;22643;-65
2022/01/31 08:43:39;;;;;;;4.10;1.30;;;;;;;7.14;58.24;99452.01;117404;1179;23454;-65
2022/01/31 08:46:09;;;;;;;3.60;1.10;;;;;;;7.20;58.23;99453.50;117196;1182;23679;-56
2022/01/31 08:48:38;;;;;;;3.50;1.00;;;;;;;7.22;58.32;99448.75;117056;1187;21859;-56
2022/01/31 08:51:09;;;;;;;3.10;1.00;;;;;;;7.19;58.01;99451.59;117225;1185;21872;-65
2022/01/31 08:53:37;;;;;;;3.40;1.00;;;;;;;7.15;57.99;99451.47;117222;1183;24313;-56
2022/01/31 08:56:09;;;;;;;4.30;1.20;;;;;;;7.10;57.89;99448.38;117205;1182;22926;-56
2022/01/31 08:58:43;;;;;;;3.40;0.80;;;;;;;7.06;57.95;99445.13;117278;1186;24233;-55
2022/01/31 09:01:16;;;;;;;3.40;0.70;;;;;;;7.04;57.84;99445.16;117193;1179;23560;-66
2022/01/31 09:06:23;;;;;;;2.80;0.70;;;;;;;6.99;57.96;99453.23;117220;1182;21866;-65
2022/01/31 09:08:51;;;;;;;2.90;0.70;;;;;;;6.96;57.68;99448.92;117168;1184;21846;-56
2022/01/31 09:11:22;;;;;;;4.10;1.00;;;;;;;6.93;57.85;99451.55;117094;1187;21854;-65
2022/01/31 09:13:50;;;;;;;3.40;0.80;;;;;;;6.92;57.99;99449.48;117076;1182;21876;-56
2022/01/31 09:16:19;;;;;;;4.10;1.10;;;;;;;6.93;57.81;99451.91;117220;1179;21914;-65
2022/01/31 09:18:47;;;;;;;4.00;0.90;;;;;;;6.97;58.09;99450.13;117252;1186;23580;-56
2022/01/31 09:21:16;;;;;;;3.40;1.10;;;;;;;7.14;58.32;99446.08;117091;1186;23601;-59
2022/01/31 09:23:44;;;;;;;3.80;1.20;;;;;;;7.33;58.21;99451.58;117222;1183;23457;-56
2022/01/31 09:26:13;;;;;;;3.90;1.40;;;;;;;7.58;58.29;99447.38;117089;1186;23644;-60
2022/01/31 09:28:41;;;;;;;4.80;1.30;;;;;;;7.78;58.25;99447.77;117059;1182;23456;-56
2022/01/31 09:31:10;;;;;;;3.90;1.20;;;;;;;7.97;58.22;99447.12;117166;1185;23475;-61
2022/01/31 09:33:39;;;;;;;6.40;1.30;;;;;;;8.10;58.20;99447.78;116993;1182;21855;-65
2022/01/31 09:36:07;;;;;;;8.50;1.10;;;;;;;8.17;58.14;99445.55;117005;1187;22095;-56
2022/01/31 09:38:36;;;;;;;4.70;1.20;;;;;;;8.23;58.00;99444.06;117174;1186;22651;-65
2022/01/31 09:41:05;;;;;;;4.20;1.40;;;;;;;8.26;58.10;99442.96;117054;1183;23020;-56
2022/01/31 09:48:56;;;;;;;5.40;1.40;;;;;;;8.21;57.75;99446.89;117139;1183;21856;-64
2022/01/31 09:51:26;;;;;;;5.30;1.30;;;;;;;8.18;57.75;99443.08;117370;1180;22645;-64
2022/01/31 09:53:56;;;;;;;3.90;1.00;;;;;;;8.17;57.68;99443.80;117240;1186;21879;-56
2022/01/31 09:56:25;;;;;;;;;;;;;;;8.15;57.69;99448.39;117210;1186;22894;-55
2022/01/31 09:58:55;;;;;;;6.10;1.40;;;;;;;8.11;57.71;99450.58;117154;1182;21854;-55
2022/01/31 10:01:27;;;;;;;5.50;1.30;;;;;;;8.08;57.71;99445.36;117282;1185;22050;-55
2022/01/31 10:04:13;;;;;;;5.60;1.80;;;;;;;8.04;57.61;99445.77;117371;1182;21877;-67
2022/01/31 10:06:43;;;;;;;3.90;1.30;;;;;;;8.02;57.63;99445.11;117193;1182;23713;-50
2022/01/31 10:09:15;;;;;;;5.70;2.50;;;;;;;8.00;57.46;99446.89;117128;1185;23449;-50
2022/01/31 10:12:09;;;;;;;7.90;3.20;;;;;;;7.97;57.48;99442.23;117173;1177;23622;-65
2022/01/31 10:17:32;;;;;;;5.80;3.20;;;;;;;7.93;57.54;99451.90;117163;1186;21877;-51
2022/01/31 10:20:31;;;;;;;4.40;1.50;;;;;;;7.95;57.57;99455.91;117159;1186;23649;-52
2022/01/31 10:23:09;;;;;;;4.40;2.20;;;;;;;7.94;57.57;99457.31;117122;1189;24307;-51
2022/01/31 10:25:38;;;;;;;6.90;3.60;;;;;;;7.93;57.55;99460.48;117175;1179;22940;-50
2022/01/31 10:28:16;;;;;;;6.00;2.10;;;;;;;7.92;57.58;99461.53;117124;1186;23478;-67
2022/01/31 10:30:45;;;;;;;6.40;2.00;;;;;;;7.88;57.36;99466.65;117175;1182;23648;-66
2022/01/31 10:33:18;;;;;;;5.50;1.70;;;;;;;7.87;57.33;99464.92;117093;1179;21846;-51
2022/01/31 10:35:46;;;;;;;7.60;3.20;;;;;;;7.86;57.36;99468.25;117104;1186;22674;-64
2022/01/31 10:38:19;;;;;;;7.20;3.30;;;;;;;7.86;57.48;99468.09;117142;1186;23482;-67
2022/01/31 10:54:28;;;;;;;10.30;7.30;;;;;;;7.91;57.40;99463.65;118256;1186;23744;-68
2022/01/31 10:57:07;;;;;;;6.80;4.10;;;;;;;7.88;57.36;99459.85;117153;1182;23381;-52
2022/01/31 10:59:41;;;;;;;3.90;1.90;;;;;;;7.88;57.26;99463.70;117126;1186;21868;-51
2022/01/31 11:02:20;;;;;;;5.60;1.60;;;;;;;7.88;57.27;99467.88;117196;1177;21859;-67
2022/01/31 11:04:50;;;;;;;3.60;1.10;;;;;;;7.90;57.39;99464.54;117090;1186;23659;-67
2022/01/31 11:07:23;;;;;;;3.60;1.00;;;;;;;7.91;57.34;99464.16;117130;1186;23474;-52
2022/01/31 11:09:52;;;;;;;5.20;2.20;;;;;;;7.92;57.20;99463.28;117171;1185;23453;-68
2022/01/31 11:12:36;;;;;;;7.50;3.30;;;;;;;7.93;57.39;99458.35;117152;1179;23957;-68
2022/01/31 11:15:05;;;;;;;4.10;1.80;;;;;;;7.96;57.25;99460.75;117150;1183;23451;-69
2022/01/31 11:17:35;;;;;;;4.70;1.40;;;;;;;7.97;57.25;99465.11;117194;1186;21876;-69
2022/01/31 11:20:06;;;;;;;2.80;1.20;;;;;;;7.99;57.21;99460.73;117167;1182;23604;-51
2022/01/31 11:22:42;;;;;;;4.00;1.10;;;;;;;8.01;57.44;99457.01;117129;1178;21901;-52
2022/01/31 11:25:15;;;;;;;4.20;1.10;;;;;;;8.04;57.30;99454.52;117131;1184;22926;-52
2022/01/31 11:27:54;;;;;;;2.60;1.00;;;;;;;8.09;57.35;99456.19;117076;1183;21920;-52
2022/01/31 11:30:22;;;;;;;2.50;0.90;;;;;;;8.11;57.23;99453.54;117110;1186;21954;-67
2022/01/31 11:32:51;;;;;;;4.00;1.20;;;;;;;8.12;57.14;99458.06;117268;1180;23934;-52
2022/01/31 11:35:20;;;;;;;3.90;1.40;;;;;;;8.11;57.33;99456.14;117213;1186;21887;-53
2022/01/31 11:37:49;;;;;;;3.80;1.40;;;;;;;8.13;57.23;99457.49;117142;1182;24189;-68
2022/01/31 11:40:17;;;;;;;3.10;1.10;;;;;;;8.18;57.37;99460.21;117152;1183;23612;-52
2022/01/31 11:42:48;;;;;;;2.70;1.00;;;;;;;8.24;57.30;99465.89;117172;1186;21859;-52
2022/01/31 11:45:33;;;;;;;2.70;1.10;;;;;;;8.29;57.40;99471.90;117147;1182;23635;-52
2022/01/31 11:48:26;;;;;;;4.30;1.20;;;;;;;8.42;57.45;99474.30;117084;1185;21862;-51
2022/01/31 11:50:57;;;;;;;4.70;1.60;;;;;;;8.62;57.56;99473.81;117179;1186;23665;-51
2022/01/31 11:53:32;;;;;;;3.20;1.30;;;;;;;8.77;57.40;99478.08;117171;1177;23684;-68
2022/01/31 11:56:09;;;;;;;3.00;1.10;;;;;;;8.84;57.24;99480.02;117151;1182;22859;-51
2022/01/31 11:58:45;;;;;;;5.20;1.30;;;;;;;8.88;57.11;99479.08;117153;1186;22666;-51
2022/01/31 12:01:13;;;;;;;2.80;1.10;;;;;;;8.85;56.94;99476.52;117085;1189;21856;-68
2022/01/31 12:03:58;;;;;;;3.80;1.10;;;;;;;8.79;56.82;99477.85;117158;1186;21870;-68
2022/01/31 12:06:37;;;;;;;3.70;1.30;;;;;;;8.67;56.81;99480.36;117146;1185;22795;-61
2022/01/31 12:09:10;;;;;;;4.00;1.40;;;;;;;8.55;56.72;99485.48;117209;1182;21861;-55
2022/01/31 12:12:03;;;;;;;3.50;1.00;;;;;;;8.41;56.65;99486.56;117075;1182;23551;-55
2022/01/31 12:14:41;;;;;;;4.30;1.20;;;;;;;8.27;56.69;99489.42;117140;1185;21945;-65
2022/01/31 12:18:19;;;;;;;3.70;1.20;;;;;;;8.15;56.57;99488.41;117212;1182;24156;-65